METAR Data
IDs: Format: Raw Decoded Include TAF

Data at: 0159 UTC 19 Oct 2021

KDEQ 190153Z AUTO 00000KT 10SM CLR 11/09 A3007 RMK AO2 SLP181 T01110094
KDEQ 190053Z AUTO 00000KT 10SM CLR 13/09 A3006 RMK AO2 SLP177 T01330094
KDEQ 182353Z AUTO 00000KT 10SM CLR 17/09 A3005 RMK AO2 SLP173 T01670094 10239 20167 56008
KDEQ 182253Z AUTO 12004KT 10SM CLR 22/07 A3005 RMK AO2 SLP174 T02220067
KDEQ 182153Z AUTO 17006KT 10SM CLR 23/07 A3006 RMK AO2 SLP175 T02330067
KDEQ 182053Z AUTO 15006KT 10SM CLR 24/07 A3007 RMK AO2 SLP180 T02390067 56032
KDEQ 181953Z AUTO 12006KT 10SM CLR 23/06 A3009 RMK AO2 SLP185 T02330061
KDEQ 181853Z AUTO 13008KT 10SM CLR 22/06 A3013 RMK AO2 SLP199 T02220061
KDEQ 181753Z AUTO VRB06KT 10SM CLR 22/06 A3017 RMK AO2 SLP213 T02170061 10222 20072 58016
KDEQ 181653Z AUTO 15008KT 10SM CLR 21/07 A3019 RMK AO2 SLP222 T02060067
KDEQ 181553Z AUTO 17004KT 10SM CLR 19/09 A3021 RMK AO2 SLP229 T01890089
KDEQ 181453Z AUTO 09004KT 10SM CLR 16/09 A3022 RMK AO2 SLP230 T01560094 53014
KDEQ 181353Z AUTO 00000KT 10SM CLR 12/09 A3021 RMK AO2 SLP227 T01170089
KDEQ 181253Z AUTO 00000KT 6SM BR CLR 08/07 A3018 RMK AO2 SLP219 T00780067
KDEQ 181153Z AUTO 00000KT 4SM BR CLR 07/06 A3018 RMK AO2 SLP216 T00720061 10100 20072 52001
KDEQ 181053Z AUTO 08003KT 10SM CLR 08/07 A3018 RMK AO2 SLP216 T00780072 $
KDEQ 180953Z AUTO 00000KT 7SM CLR 08/07 A3017 RMK AO2 SLP215 T00830072 $
KDEQ 180921Z AUTO 00000KT 3SM BR CLR 09/07 A3017 RMK AO2 T00890072 $
KDEQ 180903Z AUTO 00000KT 1 3/4SM BR CLR 08/08 A3017 RMK AO2 VIS 3/4V5 T00830078 $
KDEQ 180853Z AUTO 00000KT 10SM CLR 09/08 A3017 RMK AO2 SLP214 T00890078 55003 $
KDEQ 180753Z AUTO 00000KT 10SM CLR 09/08 A3017 RMK AO2 SLP213 T00940078 $
KDEQ 180653Z AUTO 00000KT 10SM CLR 09/08 A3017 RMK AO2 SLP214 T00940083 $
KDEQ 180553Z AUTO 00000KT 10SM CLR 10/08 A3018 RMK AO2 SLP217 T01000083 10167 20094 402390044 58006 $
KDEQ 180453Z AUTO 00000KT 10SM CLR 10/08 A3019 RMK AO2 SLP222 T01000083 $
KDEQ 180353Z AUTO 00000KT 10SM CLR 09/08 A3020 RMK AO2 SLP224 T00940083 $
KDEQ 180253Z AUTO 00000KT 10SM CLR 11/09 A3020 RMK AO2 SLP224 T01060094 53004 $
KDEQ 180153Z AUTO 00000KT 10SM CLR 12/09 A3019 RMK AO2 SLP223 T01170094 $
KDEQ 180053Z AUTO 00000KT 10SM CLR 13/10 A3019 RMK AO2 SLP221 T01330100 $
KDEQ 172353Z AUTO 00000KT 10SM CLR 17/10 A3019 RMK AO2 SLP221 T01670100 10239 20167 56006 $
KDEQ 172253Z AUTO 20003KT 10SM CLR 21/07 A3019 RMK AO2 SLP221 T02060067 $
KDEQ 172153Z AUTO VRB03KT 10SM CLR 23/04 A3020 RMK AO2 SLP222 T02280044 $
KDEQ 172053Z AUTO 00000KT 10SM CLR 23/03 A3021 RMK AO2 SLP226 T02330028 56030 $
KDEQ 171953Z AUTO 00000KT 10SM CLR 23/03 A3023 RMK AO2 SLP233 T02330028 $
KDEQ 171853Z AUTO 00000KT 10SM CLR 23/03 A3026 RMK AO2 SLP244 T02330033 $
KDEQ 171753Z AUTO VRB03KT 10SM CLR 22/02 A3030 RMK AO2 SLP257 T02170022 10222 20044 58012 $
KDEQ 171653Z AUTO 00000KT 10SM CLR 21/04 A3032 RMK AO2 SLP266 T02060044 $
KDEQ 171553Z AUTO 00000KT 10SM CLR 19/07 A3033 RMK AO2 SLP268 T01890072 $
KDEQ 171453Z AUTO 00000KT 10SM CLR 14/09 A3033 RMK AO2 SLP269 T01440089 53009 $